sensor_id;sensor_type;location;lat;lon;timestamp;P1;durP1;ratioP1;P2;durP2;ratioP2
21991;SDS011;11160;51.576;0.194;2022-07-30T00:01:17;157.30;;;149.02;;
21991;SDS011;11160;51.576;0.194;2022-07-30T00:03:44;172.88;;;163.85;;
21991;SDS011;11160;51.576;0.194;2022-07-30T00:06:11;162.90;;;154.43;;
21991;SDS011;11160;51.576;0.194;2022-07-30T00:08:38;166.52;;;157.88;;
21991;SDS011;11160;51.576;0.194;2022-07-30T00:11:06;170.05;;;161.02;;
21991;SDS011;11160;51.576;0.194;2022-07-30T00:13:33;175.13;;;165.93;;
21991;SDS011;11160;51.576;0.194;2022-07-30T00:16:02;155.65;;;147.30;;
21991;SDS011;11160;51.576;0.194;2022-07-30T00:18:29;159.60;;;151.05;;
21991;SDS011;11160;51.576;0.194;2022-07-30T00:20:57;168.13;;;159.18;;
21991;SDS011;11160;51.576;0.194;2022-07-30T00:23:24;155.68;;;147.57;;
21991;SDS011;11160;51.576;0.194;2022-07-30T00:25:52;145.00;;;137.43;;
21991;SDS011;11160;51.576;0.194;2022-07-30T00:28:20;159.57;;;151.07;;
21991;SDS011;11160;51.576;0.194;2022-07-30T00:30:47;164.60;;;156.02;;
21991;SDS011;11160;51.576;0.194;2022-07-30T00:33:20;128.23;;;121.28;;
21991;SDS011;11160;51.576;0.194;2022-07-30T00:35:48;108.50;;;102.57;;
21991;SDS011;11160;51.576;0.194;2022-07-30T00:38:16;129.25;;;122.05;;
21991;SDS011;11160;51.576;0.194;2022-07-30T00:40:48;117.10;;;110.60;;
21991;SDS011;11160;51.576;0.194;2022-07-30T00:43:16;129.95;;;122.88;;
21991;SDS011;11160;51.576;0.194;2022-07-30T00:45:43;114.80;;;108.60;;
21991;SDS011;11160;51.576;0.194;2022-07-30T00:48:11;124.75;;;117.82;;
21991;SDS011;11160;51.576;0.194;2022-07-30T00:50:39;122.50;;;115.65;;
21991;SDS011;11160;51.576;0.194;2022-07-30T00:53:13;110.10;;;103.97;;
21991;SDS011;11160;51.576;0.194;2022-07-30T00:55:40;113.87;;;107.57;;
21991;SDS011;11160;51.576;0.194;2022-07-30T00:58:07;120.80;;;114.15;;
21991;SDS011;11160;51.576;0.194;2022-07-30T01:00:35;123.63;;;116.90;;
21991;SDS011;11160;51.576;0.194;2022-07-30T01:03:02;142.82;;;135.07;;
21991;SDS011;11160;51.576;0.194;2022-07-30T01:05:30;128.55;;;121.43;;
21991;SDS011;11160;51.576;0.194;2022-07-30T01:07:57;110.97;;;104.93;;
21991;SDS011;11160;51.576;0.194;2022-07-30T01:10:24;127.68;;;120.65;;
21991;SDS011;11160;51.576;0.194;2022-07-30T01:12:52;119.60;;;112.97;;
21991;SDS011;11160;51.576;0.194;2022-07-30T01:15:19;135.90;;;128.43;;
21991;SDS011;11160;51.576;0.194;2022-07-30T01:17:49;127.90;;;120.85;;
21991;SDS011;11160;51.576;0.194;2022-07-30T01:20:29;118.22;;;111.57;;
21991;SDS011;11160;51.576;0.194;2022-07-30T01:23:13;122.35;;;115.80;;
21991;SDS011;11160;51.576;0.194;2022-07-30T01:26:03;109.40;;;103.47;;
21991;SDS011;11160;51.576;0.194;2022-07-30T01:28:36;134.85;;;127.53;;
21991;SDS011;11160;51.576;0.194;2022-07-30T01:31:08;113.40;;;107.15;;
21991;SDS011;11160;51.576;0.194;2022-07-30T01:33:38;146.38;;;138.60;;
21991;SDS011;11160;51.576;0.194;2022-07-30T01:36:10;114.15;;;107.80;;
21991;SDS011;11160;51.576;0.194;2022-07-30T01:38:43;120.07;;;113.40;;
21991;SDS011;11160;51.576;0.194;2022-07-30T01:41:12;136.23;;;128.93;;
21991;SDS011;11160;51.576;0.194;2022-07-30T01:43:41;128.68;;;121.78;;
21991;SDS011;11160;51.576;0.194;2022-07-30T01:46:10;115.65;;;109.35;;
21991;SDS011;11160;51.576;0.194;2022-07-30T01:48:43;157.85;;;149.55;;
21991;SDS011;11160;51.576;0.194;2022-07-30T01:51:12;121.28;;;114.57;;
21991;SDS011;11160;51.576;0.194;2022-07-30T01:53:45;138.20;;;130.98;;
21991;SDS011;11160;51.576;0.194;2022-07-30T01:56:18;156.80;;;148.52;;
21991;SDS011;11160;51.576;0.194;2022-07-30T01:58:51;119.40;;;113.00;;
21991;SDS011;11160;51.576;0.194;2022-07-30T02:01:24;130.32;;;123.40;;
21991;SDS011;11160;51.576;0.194;2022-07-30T02:03:57;142.80;;;135.25;;
21991;SDS011;11160;51.576;0.194;2022-07-30T02:06:30;147.30;;;139.57;;
21991;SDS011;11160;51.576;0.194;2022-07-30T02:09:06;149.82;;;141.90;;
21991;SDS011;11160;51.576;0.194;2022-07-30T02:11:44;145.43;;;137.82;;
21991;SDS011;11160;51.576;0.194;2022-07-30T02:14:38;145.05;;;137.55;;
21991;SDS011;11160;51.576;0.194;2022-07-30T02:17:22;113.43;;;107.55;;
21991;SDS011;11160;51.576;0.194;2022-07-30T02:20:05;151.75;;;143.85;;
21991;SDS011;11160;51.576;0.194;2022-07-30T02:22:37;144.30;;;136.57;;
21991;SDS011;11160;51.576;0.194;2022-07-30T02:27:37;113.72;;;107.85;;
21991;SDS011;11160;51.576;0.194;2022-07-30T02:30:08;119.03;;;112.78;;
21991;SDS011;11160;51.576;0.194;2022-07-30T02:32:37;125.85;;;119.20;;
21991;SDS011;11160;51.576;0.194;2022-07-30T02:35:11;123.25;;;116.72;;
21991;SDS011;11160;51.576;0.194;2022-07-30T02:37:43;147.98;;;140.10;;
21991;SDS011;11160;51.576;0.194;2022-07-30T02:40:13;144.55;;;136.85;;
21991;SDS011;11160;51.576;0.194;2022-07-30T02:45:17;97.00;;;91.95;;
21991;SDS011;11160;51.576;0.194;2022-07-30T02:47:47;127.40;;;120.85;;
21991;SDS011;11160;51.576;0.194;2022-07-30T02:50:18;122.78;;;116.22;;
21991;SDS011;11160;51.576;0.194;2022-07-30T02:52:46;126.75;;;120.00;;
21991;SDS011;11160;51.576;0.194;2022-07-30T02:55:16;145.52;;;137.95;;
21991;SDS011;11160;51.576;0.194;2022-07-30T02:57:44;125.00;;;118.50;;
21991;SDS011;11160;51.576;0.194;2022-07-30T03:00:15;135.85;;;128.73;;
21991;SDS011;11160;51.576;0.194;2022-07-30T03:02:42;132.77;;;125.90;;
21991;SDS011;11160;51.576;0.194;2022-07-30T03:05:12;119.82;;;113.45;;
21991;SDS011;11160;51.576;0.194;2022-07-30T03:07:40;144.80;;;137.20;;
21991;SDS011;11160;51.576;0.194;2022-07-30T03:10:10;136.07;;;129.02;;
21991;SDS011;11160;51.576;0.194;2022-07-30T03:12:39;127.78;;;120.95;;
21991;SDS011;11160;51.576;0.194;2022-07-30T03:15:11;122.38;;;115.95;;
21991;SDS011;11160;51.576;0.194;2022-07-30T03:17:41;113.05;;;107.25;;
21991;SDS011;11160;51.576;0.194;2022-07-30T03:20:12;135.45;;;128.43;;
21991;SDS011;11160;51.576;0.194;2022-07-30T03:22:43;127.38;;;120.63;;
21991;SDS011;11160;51.576;0.194;2022-07-30T03:25:16;156.75;;;148.65;;
21991;SDS011;11160;51.576;0.194;2022-07-30T03:27:49;143.43;;;135.93;;
21991;SDS011;11160;51.576;0.194;2022-07-30T03:30:20;125.88;;;119.25;;
21991;SDS011;11160;51.576;0.194;2022-07-30T03:32:49;117.13;;;110.97;;
21991;SDS011;11160;51.576;0.194;2022-07-30T03:35:19;117.93;;;111.78;;
21991;SDS011;11160;51.576;0.194;2022-07-30T03:37:47;114.78;;;108.70;;
21991;SDS011;11160;51.576;0.194;2022-07-30T03:40:16;141.23;;;133.93;;
21991;SDS011;11160;51.576;0.194;2022-07-30T03:42:45;117.38;;;111.22;;
21991;SDS011;11160;51.576;0.194;2022-07-30T03:45:17;120.53;;;114.32;;
21991;SDS011;11160;51.576;0.194;2022-07-30T03:47:47;137.38;;;130.38;;
21991;SDS011;11160;51.576;0.194;2022-07-30T03:50:15;143.52;;;136.13;;
21991;SDS011;11160;51.576;0.194;2022-07-30T03:52:42;136.95;;;129.98;;
21991;SDS011;11160;51.576;0.194;2022-07-30T03:55:14;151.18;;;143.38;;
21991;SDS011;11160;51.576;0.194;2022-07-30T03:57:48;123.60;;;117.15;;
21991;SDS011;11160;51.576;0.194;2022-07-30T04:00:20;130.90;;;124.05;;
21991;SDS011;11160;51.576;0.194;2022-07-30T04:02:50;128.40;;;121.68;;
21991;SDS011;11160;51.576;0.194;2022-07-30T04:05:28;119.85;;;113.63;;
21991;SDS011;11160;51.576;0.194;2022-07-30T04:08:07;125.47;;;118.93;;
21991;SDS011;11160;51.576;0.194;2022-07-30T04:10:34;145.25;;;137.95;;
21991;SDS011;11160;51.576;0.194;2022-07-30T04:13:04;142.87;;;135.67;;
21991;SDS011;11160;51.576;0.194;2022-07-30T04:18:47;130.00;;;123.45;;
21991;SDS011;11160;51.576;0.194;2022-07-30T04:21:17;122.60;;;116.38;;
21991;SDS011;11160;51.576;0.194;2022-07-30T04:26:33;100.15;;;95.25;;
21991;SDS011;11160;51.576;0.194;2022-07-30T04:29:05;129.60;;;123.00;;
21991;SDS011;11160;51.576;0.194;2022-07-30T04:31:39;118.05;;;111.90;;
21991;SDS011;11160;51.576;0.194;2022-07-30T04:34:25;127.47;;;120.93;;
21991;SDS011;11160;51.576;0.194;2022-07-30T04:36:53;128.48;;;121.93;;
21991;SDS011;11160;51.576;0.194;2022-07-30T04:39:20;133.38;;;126.47;;
21991;SDS011;11160;51.576;0.194;2022-07-30T04:41:47;118.05;;;111.97;;
21991;SDS011;11160;51.576;0.194;2022-07-30T04:44:30;122.15;;;115.97;;
21991;SDS011;11160;51.576;0.194;2022-07-30T04:47:21;106.03;;;100.78;;
21991;SDS011;11160;51.576;0.194;2022-07-30T04:50:08;107.70;;;102.28;;
21991;SDS011;11160;51.576;0.194;2022-07-30T04:52:37;93.90;;;89.20;;
21991;SDS011;11160;51.576;0.194;2022-07-30T04:55:05;116.35;;;110.53;;
21991;SDS011;11160;51.576;0.194;2022-07-30T04:57:35;127.97;;;121.53;;
21991;SDS011;11160;51.576;0.194;2022-07-30T05:00:04;124.45;;;118.00;;
21991;SDS011;11160;51.576;0.194;2022-07-30T05:02:34;119.57;;;113.53;;
21991;SDS011;11160;51.576;0.194;2022-07-30T05:05:06;123.38;;;117.25;;
21991;SDS011;11160;51.576;0.194;2022-07-30T05:07:35;134.85;;;127.85;;
21991;SDS011;11160;51.576;0.194;2022-07-30T05:10:05;112.63;;;107.05;;
21991;SDS011;11160;51.576;0.194;2022-07-30T05:12:34;124.32;;;117.90;;
21991;SDS011;11160;51.576;0.194;2022-07-30T05:15:05;124.10;;;117.80;;
21991;SDS011;11160;51.576;0.194;2022-07-30T05:17:34;112.23;;;106.57;;
21991;SDS011;11160;51.576;0.194;2022-07-30T05:20:04;123.32;;;117.05;;
21991;SDS011;11160;51.576;0.194;2022-07-30T05:22:50;126.32;;;119.93;;
21991;SDS011;11160;51.576;0.194;2022-07-30T05:25:20;126.35;;;119.80;;
21991;SDS011;11160;51.576;0.194;2022-07-30T05:27:49;124.53;;;118.25;;
21991;SDS011;11160;51.576;0.194;2022-07-30T05:30:17;124.80;;;118.43;;
21991;SDS011;11160;51.576;0.194;2022-07-30T05:32:51;134.82;;;127.93;;
21991;SDS011;11160;51.576;0.194;2022-07-30T05:35:21;119.47;;;113.47;;
21991;SDS011;11160;51.576;0.194;2022-07-30T05:37:49;136.60;;;129.60;;
21991;SDS011;11160;51.576;0.194;2022-07-30T05:40:17;140.13;;;132.93;;
21991;SDS011;11160;51.576;0.194;2022-07-30T05:43:20;105.82;;;100.57;;
21991;SDS011;11160;51.576;0.194;2022-07-30T05:45:48;136.55;;;129.50;;
21991;SDS011;11160;51.576;0.194;2022-07-30T05:48:15;134.57;;;127.68;;
21991;SDS011;11160;51.576;0.194;2022-07-30T05:50:42;140.07;;;132.80;;
21991;SDS011;11160;51.576;0.194;2022-07-30T05:53:09;143.40;;;135.95;;
21991;SDS011;11160;51.576;0.194;2022-07-30T05:55:55;139.60;;;132.43;;
21991;SDS011;11160;51.576;0.194;2022-07-30T05:58:42;128.45;;;121.90;;
21991;SDS011;11160;51.576;0.194;2022-07-30T06:01:13;129.85;;;123.13;;
21991;SDS011;11160;51.576;0.194;2022-07-30T06:03:40;136.95;;;129.93;;
21991;SDS011;11160;51.576;0.194;2022-07-30T06:06:26;132.00;;;125.13;;
21991;SDS011;11160;51.576;0.194;2022-07-30T06:08:53;134.90;;;127.97;;
21991;SDS011;11160;51.576;0.194;2022-07-30T06:11:21;145.65;;;138.13;;
21991;SDS011;11160;51.576;0.194;2022-07-30T06:13:48;140.18;;;132.85;;
21991;SDS011;11160;51.576;0.194;2022-07-30T06:16:16;132.80;;;126.00;;
21991;SDS011;11160;51.576;0.194;2022-07-30T06:18:44;129.43;;;122.72;;
21991;SDS011;11160;51.576;0.194;2022-07-30T06:21:20;137.10;;;129.93;;
21991;SDS011;11160;51.576;0.194;2022-07-30T06:24:09;133.60;;;126.70;;
21991;SDS011;11160;51.576;0.194;2022-07-30T06:27:05;125.30;;;118.65;;
21991;SDS011;11160;51.576;0.194;2022-07-30T06:29:32;136.52;;;129.35;;
21991;SDS011;11160;51.576;0.194;2022-07-30T06:31:59;144.02;;;136.52;;
21991;SDS011;11160;51.576;0.194;2022-07-30T06:34:26;121.53;;;115.13;;
21991;SDS011;11160;51.576;0.194;2022-07-30T06:36:54;141.00;;;133.60;;
21991;SDS011;11160;51.576;0.194;2022-07-30T06:39:21;126.35;;;119.72;;
21991;SDS011;11160;51.576;0.194;2022-07-30T06:42:13;136.55;;;129.45;;
21991;SDS011;11160;51.576;0.194;2022-07-30T06:45:00;130.50;;;123.70;;
21991;SDS011;11160;51.576;0.194;2022-07-30T06:47:46;139.10;;;131.77;;
21991;SDS011;11160;51.576;0.194;2022-07-30T06:50:13;140.70;;;133.40;;
21991;SDS011;11160;51.576;0.194;2022-07-30T06:52:41;136.20;;;129.15;;
21991;SDS011;11160;51.576;0.194;2022-07-30T06:55:08;132.05;;;125.20;;
21991;SDS011;11160;51.576;0.194;2022-07-30T06:57:46;138.40;;;131.27;;
21991;SDS011;11160;51.576;0.194;2022-07-30T07:00:33;129.57;;;122.88;;
21991;SDS011;11160;51.576;0.194;2022-07-30T07:03:07;132.48;;;125.60;;
21991;SDS011;11160;51.576;0.194;2022-07-30T07:08:05;110.40;;;104.72;;
21991;SDS011;11160;51.576;0.194;2022-07-30T07:10:36;91.28;;;86.68;;
21991;SDS011;11160;51.576;0.194;2022-07-30T07:15:55;96.20;;;91.22;;
21991;SDS011;11160;51.576;0.194;2022-07-30T07:18:25;94.97;;;90.15;;
21991;SDS011;11160;51.576;0.194;2022-07-30T07:20:57;78.47;;;74.50;;
21991;SDS011;11160;51.576;0.194;2022-07-30T07:23:24;78.00;;;74.00;;
21991;SDS011;11160;51.576;0.194;2022-07-30T07:26:28;72.63;;;68.93;;
21991;SDS011;11160;51.576;0.194;2022-07-30T07:28:56;71.90;;;68.20;;
21991;SDS011;11160;51.576;0.194;2022-07-30T07:31:30;72.68;;;69.03;;
21991;SDS011;11160;51.576;0.194;2022-07-30T07:34:17;72.53;;;68.78;;
21991;SDS011;11160;51.576;0.194;2022-07-30T07:36:44;62.33;;;59.10;;
21991;SDS011;11160;51.576;0.194;2022-07-30T07:39:12;64.25;;;60.83;;
21991;SDS011;11160;51.576;0.194;2022-07-30T07:41:42;63.00;;;59.70;;
21991;SDS011;11160;51.576;0.194;2022-07-30T07:44:18;63.60;;;60.33;;
21991;SDS011;11160;51.576;0.194;2022-07-30T07:46:46;62.85;;;59.47;;
21991;SDS011;11160;51.576;0.194;2022-07-30T07:49:14;64.40;;;60.97;;
21991;SDS011;11160;51.576;0.194;2022-07-30T07:51:51;66.40;;;62.63;;
21991;SDS011;11160;51.576;0.194;2022-07-30T07:54:19;64.30;;;60.83;;
21991;SDS011;11160;51.576;0.194;2022-07-30T07:56:50;66.40;;;62.90;;
21991;SDS011;11160;51.576;0.194;2022-07-30T07:59:25;64.32;;;60.78;;
21991;SDS011;11160;51.576;0.194;2022-07-30T08:02:05;57.88;;;54.72;;
21991;SDS011;11160;51.576;0.194;2022-07-30T08:04:47;57.05;;;53.80;;
21991;SDS011;11160;51.576;0.194;2022-07-30T08:07:38;51.22;;;48.40;;
21991;SDS011;11160;51.576;0.194;2022-07-30T08:10:24;46.92;;;44.42;;
21991;SDS011;11160;51.576;0.194;2022-07-30T08:13:10;48.47;;;45.72;;
21991;SDS011;11160;51.576;0.194;2022-07-30T08:16:16;47.47;;;44.95;;
21991;SDS011;11160;51.576;0.194;2022-07-30T08:19:02;45.38;;;42.97;;
21991;SDS011;11160;51.576;0.194;2022-07-30T08:21:33;46.40;;;43.90;;
21991;SDS011;11160;51.576;0.194;2022-07-30T08:24:00;48.63;;;45.67;;
21991;SDS011;11160;51.576;0.194;2022-07-30T08:26:28;28.35;;;26.55;;
21991;SDS011;11160;51.576;0.194;2022-07-30T08:28:55;24.23;;;22.58;;
21991;SDS011;11160;51.576;0.194;2022-07-30T08:31:22;27.50;;;25.75;;
21991;SDS011;11160;51.576;0.194;2022-07-30T08:33:49;28.33;;;26.60;;
21991;SDS011;11160;51.576;0.194;2022-07-30T08:36:16;33.58;;;31.55;;
21991;SDS011;11160;51.576;0.194;2022-07-30T08:38:48;28.15;;;26.45;;
21991;SDS011;11160;51.576;0.194;2022-07-30T08:41:16;30.10;;;28.02;;
21991;SDS011;11160;51.576;0.194;2022-07-30T08:43:46;33.22;;;31.25;;
21991;SDS011;11160;51.576;0.194;2022-07-30T08:46:18;29.80;;;27.77;;
21991;SDS011;11160;51.576;0.194;2022-07-30T08:48:56;30.42;;;28.55;;
21991;SDS011;11160;51.576;0.194;2022-07-30T08:51:23;29.75;;;27.85;;
21991;SDS011;11160;51.576;0.194;2022-07-30T08:54:09;31.42;;;29.50;;
21991;SDS011;11160;51.576;0.194;2022-07-30T08:56:37;31.23;;;29.33;;
21991;SDS011;11160;51.576;0.194;2022-07-30T08:59:05;29.55;;;27.75;;
21991;SDS011;11160;51.576;0.194;2022-07-30T09:01:33;27.25;;;25.75;;
21991;SDS011;11160;51.576;0.194;2022-07-30T09:04:01;25.17;;;23.58;;
21991;SDS011;11160;51.576;0.194;2022-07-30T09:06:29;30.48;;;28.77;;
21991;SDS011;11160;51.576;0.194;2022-07-30T09:08:57;21.05;;;19.65;;
21991;SDS011;11160;51.576;0.194;2022-07-30T09:11:25;27.92;;;26.17;;
21991;SDS011;11160;51.576;0.194;2022-07-30T09:13:53;26.73;;;24.58;;
21991;SDS011;11160;51.576;0.194;2022-07-30T09:16:23;25.50;;;23.88;;
21991;SDS011;11160;51.576;0.194;2022-07-30T09:18:54;22.70;;;21.40;;
21991;SDS011;11160;51.576;0.194;2022-07-30T09:24:05;21.25;;;19.88;;
21991;SDS011;11160;51.576;0.194;2022-07-30T09:27:01;22.23;;;21.02;;
21991;SDS011;11160;51.576;0.194;2022-07-30T09:29:57;22.42;;;20.98;;
21991;SDS011;11160;51.576;0.194;2022-07-30T09:32:47;22.65;;;21.38;;
21991;SDS011;11160;51.576;0.194;2022-07-30T09:35:34;24.95;;;23.55;;
21991;SDS011;11160;51.576;0.194;2022-07-30T09:38:08;26.63;;;25.02;;
21991;SDS011;11160;51.576;0.194;2022-07-30T09:41:01;25.27;;;23.75;;
21991;SDS011;11160;51.576;0.194;2022-07-30T09:44:03;22.80;;;21.52;;
21991;SDS011;11160;51.576;0.194;2022-07-30T09:46:44;28.20;;;26.52;;
21991;SDS011;11160;51.576;0.194;2022-07-30T09:49:35;24.58;;;22.85;;
21991;SDS011;11160;51.576;0.194;2022-07-30T09:52:02;36.45;;;34.30;;
21991;SDS011;11160;51.576;0.194;2022-07-30T09:54:45;23.58;;;22.17;;
21991;SDS011;11160;51.576;0.194;2022-07-30T09:57:20;28.55;;;26.83;;
21991;SDS011;11160;51.576;0.194;2022-07-30T10:00:15;29.65;;;28.02;;
21991;SDS011;11160;51.576;0.194;2022-07-30T10:06:33;23.85;;;22.45;;
21991;SDS011;11160;51.576;0.194;2022-07-30T10:11:56;33.53;;;31.45;;
21991;SDS011;11160;51.576;0.194;2022-07-30T10:14:33;31.38;;;29.45;;
21991;SDS011;11160;51.576;0.194;2022-07-30T10:17:10;29.38;;;27.48;;
21991;SDS011;11160;51.576;0.194;2022-07-30T10:19:40;33.78;;;31.85;;
21991;SDS011;11160;51.576;0.194;2022-07-30T10:22:26;32.95;;;31.00;;
21991;SDS011;11160;51.576;0.194;2022-07-30T10:25:18;35.88;;;33.80;;
21991;SDS011;11160;51.576;0.194;2022-07-30T10:28:11;36.90;;;34.78;;
21991;SDS011;11160;51.576;0.194;2022-07-30T10:30:42;42.58;;;40.05;;
21991;SDS011;11160;51.576;0.194;2022-07-30T10:33:10;41.58;;;39.10;;
21991;SDS011;11160;51.576;0.194;2022-07-30T10:35:58;46.00;;;43.40;;
21991;SDS011;11160;51.576;0.194;2022-07-30T10:38:29;41.90;;;39.60;;
21991;SDS011;11160;51.576;0.194;2022-07-30T10:41:07;49.83;;;47.05;;
21991;SDS011;11160;51.576;0.194;2022-07-30T10:47:11;36.85;;;34.58;;
21991;SDS011;11160;51.576;0.194;2022-07-30T10:49:39;43.65;;;41.05;;
21991;SDS011;11160;51.576;0.194;2022-07-30T10:52:09;45.63;;;42.92;;
21991;SDS011;11160;51.576;0.194;2022-07-30T10:54:41;41.25;;;38.83;;
21991;SDS011;11160;51.576;0.194;2022-07-30T10:57:14;47.78;;;45.25;;
21991;SDS011;11160;51.576;0.194;2022-07-30T11:02:27;52.08;;;49.22;;
21991;SDS011;11160;51.576;0.194;2022-07-30T11:07:44;54.42;;;51.38;;
21991;SDS011;11160;51.576;0.194;2022-07-30T11:10:32;68.27;;;64.70;;
21991;SDS011;11160;51.576;0.194;2022-07-30T11:13:09;66.95;;;63.22;;
21991;SDS011;11160;51.576;0.194;2022-07-30T11:15:53;62.45;;;58.92;;
21991;SDS011;11160;51.576;0.194;2022-07-30T11:18:23;73.70;;;69.70;;
21991;SDS011;11160;51.576;0.194;2022-07-30T11:21:13;79.35;;;74.85;;
21991;SDS011;11160;51.576;0.194;2022-07-30T11:23:42;92.13;;;87.38;;
21991;SDS011;11160;51.576;0.194;2022-07-30T11:32:45;65.35;;;61.88;;
21991;SDS011;11160;51.576;0.194;2022-07-30T11:34:55;73.72;;;69.88;;
21991;SDS011;11160;51.576;0.194;2022-07-30T11:46:11;115.18;;;109.20;;
21991;SDS011;11160;51.576;0.194;2022-07-30T11:48:56;85.65;;;81.15;;
21991;SDS011;11160;51.576;0.194;2022-07-30T11:51:25;95.82;;;90.97;;
21991;SDS011;11160;51.576;0.194;2022-07-30T11:54:00;95.63;;;90.57;;
21991;SDS011;11160;51.576;0.194;2022-07-30T11:56:28;87.20;;;82.57;;
21991;SDS011;11160;51.576;0.194;2022-07-30T11:59:06;91.82;;;86.78;;
21991;SDS011;11160;51.576;0.194;2022-07-30T12:01:34;89.50;;;84.75;;
21991;SDS011;11160;51.576;0.194;2022-07-30T12:04:05;95.65;;;90.13;;
21991;SDS011;11160;51.576;0.194;2022-07-30T12:06:41;96.82;;;91.53;;
21991;SDS011;11160;51.576;0.194;2022-07-30T12:09:23;78.93;;;74.53;;
21991;SDS011;11160;51.576;0.194;2022-07-30T12:11:55;86.25;;;81.60;;
21991;SDS011;11160;51.576;0.194;2022-07-30T12:14:22;81.93;;;77.40;;
21991;SDS011;11160;51.576;0.194;2022-07-30T12:16:50;79.25;;;74.95;;
21991;SDS011;11160;51.576;0.194;2022-07-30T12:19:19;64.00;;;60.45;;
21991;SDS011;11160;51.576;0.194;2022-07-30T12:21:46;73.40;;;69.40;;
21991;SDS011;11160;51.576;0.194;2022-07-30T12:24:23;56.17;;;52.97;;
21991;SDS011;11160;51.576;0.194;2022-07-30T12:26:51;57.50;;;54.35;;
21991;SDS011;11160;51.576;0.194;2022-07-30T12:29:30;46.80;;;44.28;;
21991;SDS011;11160;51.576;0.194;2022-07-30T12:31:58;44.95;;;42.35;;
21991;SDS011;11160;51.576;0.194;2022-07-30T12:34:26;54.75;;;51.45;;
21991;SDS011;11160;51.576;0.194;2022-07-30T12:36:53;70.63;;;66.57;;
21991;SDS011;11160;51.576;0.194;2022-07-30T12:39:23;61.63;;;58.25;;
21991;SDS011;11160;51.576;0.194;2022-07-30T12:47:16;48.92;;;46.08;;
21991;SDS011;11160;51.576;0.194;2022-07-30T12:49:44;65.80;;;61.67;;
21991;SDS011;11160;51.576;0.194;2022-07-30T12:55:00;46.50;;;42.80;;
21991;SDS011;11160;51.576;0.194;2022-07-30T13:00:28;109.18;;;103.28;;
21991;SDS011;11160;51.576;0.194;2022-07-30T13:03:25;78.72;;;74.38;;
21991;SDS011;11160;51.576;0.194;2022-07-30T13:05:54;143.80;;;136.18;;
21991;SDS011;11160;51.576;0.194;2022-07-30T13:11:11;122.72;;;115.88;;
21991;SDS011;11160;51.576;0.194;2022-07-30T13:13:38;116.53;;;109.97;;
21991;SDS011;11160;51.576;0.194;2022-07-30T13:16:05;108.97;;;103.18;;
21991;SDS011;11160;51.576;0.194;2022-07-30T13:18:33;137.68;;;130.48;;
21991;SDS011;11160;51.576;0.194;2022-07-30T13:21:02;99.07;;;93.90;;
21991;SDS011;11160;51.576;0.194;2022-07-30T13:26:00;101.53;;;96.32;;
21991;SDS011;11160;51.576;0.194;2022-07-30T13:28:28;96.57;;;91.55;;
21991;SDS011;11160;51.576;0.194;2022-07-30T13:30:58;102.93;;;97.43;;
21991;SDS011;11160;51.576;0.194;2022-07-30T13:33:25;112.15;;;106.28;;
21991;SDS011;11160;51.576;0.194;2022-07-30T13:35:52;144.98;;;137.20;;
21991;SDS011;11160;51.576;0.194;2022-07-30T13:38:21;134.85;;;127.57;;
21991;SDS011;11160;51.576;0.194;2022-07-30T13:40:48;116.32;;;109.97;;
21991;SDS011;11160;51.576;0.194;2022-07-30T13:43:15;129.23;;;122.07;;
21991;SDS011;11160;51.576;0.194;2022-07-30T13:45:42;112.82;;;106.68;;
21991;SDS011;11160;51.576;0.194;2022-07-30T13:48:10;135.48;;;128.35;;
21991;SDS011;11160;51.576;0.194;2022-07-30T13:50:37;111.28;;;105.50;;
21991;SDS011;11160;51.576;0.194;2022-07-30T13:53:04;121.40;;;115.07;;
21991;SDS011;11160;51.576;0.194;2022-07-30T13:55:31;159.25;;;150.70;;
21991;SDS011;11160;51.576;0.194;2022-07-30T13:57:58;164.05;;;155.40;;
21991;SDS011;11160;51.576;0.194;2022-07-30T14:00:26;161.93;;;153.25;;
21991;SDS011;11160;51.576;0.194;2022-07-30T14:03:00;138.13;;;130.88;;
21991;SDS011;11160;51.576;0.194;2022-07-30T14:05:32;132.88;;;125.53;;
21991;SDS011;11160;51.576;0.194;2022-07-30T14:08:07;188.98;;;178.45;;
21991;SDS011;11160;51.576;0.194;2022-07-30T14:10:36;199.68;;;188.27;;
21991;SDS011;11160;51.576;0.194;2022-07-30T14:13:05;186.45;;;176.30;;
21991;SDS011;11160;51.576;0.194;2022-07-30T14:15:33;126.38;;;119.65;;
21991;SDS011;11160;51.576;0.194;2022-07-30T14:18:01;160.90;;;152.20;;
21991;SDS011;11160;51.576;0.194;2022-07-30T14:20:29;165.27;;;156.57;;
21991;SDS011;11160;51.576;0.194;2022-07-30T14:22:56;135.23;;;128.20;;
21991;SDS011;11160;51.576;0.194;2022-07-30T14:25:23;157.02;;;148.85;;
21991;SDS011;11160;51.576;0.194;2022-07-30T14:27:50;151.18;;;142.90;;
21991;SDS011;11160;51.576;0.194;2022-07-30T14:30:17;129.82;;;122.80;;
21991;SDS011;11160;51.576;0.194;2022-07-30T14:32:45;94.53;;;89.55;;
21991;SDS011;11160;51.576;0.194;2022-07-30T14:35:13;124.10;;;117.60;;
21991;SDS011;11160;51.576;0.194;2022-07-30T14:37:40;130.00;;;123.22;;
21991;SDS011;11160;51.576;0.194;2022-07-30T14:40:08;129.45;;;122.50;;
21991;SDS011;11160;51.576;0.194;2022-07-30T14:42:39;120.68;;;114.43;;
21991;SDS011;11160;51.576;0.194;2022-07-30T14:45:07;118.53;;;112.38;;
21991;SDS011;11160;51.576;0.194;2022-07-30T14:47:35;88.75;;;83.68;;
21991;SDS011;11160;51.576;0.194;2022-07-30T14:50:04;114.57;;;108.45;;
21991;SDS011;11160;51.576;0.194;2022-07-30T14:52:32;159.25;;;150.98;;
21991;SDS011;11160;51.576;0.194;2022-07-30T14:55:00;95.00;;;90.05;;
21991;SDS011;11160;51.576;0.194;2022-07-30T14:57:31;95.75;;;90.78;;
21991;SDS011;11160;51.576;0.194;2022-07-30T14:59:59;111.07;;;105.35;;
21991;SDS011;11160;51.576;0.194;2022-07-30T15:02:26;93.03;;;88.25;;
21991;SDS011;11160;51.576;0.194;2022-07-30T15:04:53;110.32;;;104.53;;
21991;SDS011;11160;51.576;0.194;2022-07-30T15:07:20;135.35;;;128.07;;
21991;SDS011;11160;51.576;0.194;2022-07-30T15:09:48;94.47;;;89.63;;
21991;SDS011;11160;51.576;0.194;2022-07-30T15:12:15;80.22;;;76.05;;
21991;SDS011;11160;51.576;0.194;2022-07-30T15:14:52;98.70;;;93.53;;
21991;SDS011;11160;51.576;0.194;2022-07-30T15:17:19;102.80;;;97.35;;
21991;SDS011;11160;51.576;0.194;2022-07-30T15:19:46;93.65;;;88.70;;
21991;SDS011;11160;51.576;0.194;2022-07-30T15:22:17;98.75;;;93.55;;
21991;SDS011;11160;51.576;0.194;2022-07-30T15:24:45;80.85;;;76.65;;
21991;SDS011;11160;51.576;0.194;2022-07-30T15:27:12;93.28;;;88.32;;
21991;SDS011;11160;51.576;0.194;2022-07-30T15:29:39;76.97;;;73.00;;
21991;SDS011;11160;51.576;0.194;2022-07-30T15:32:07;91.97;;;87.15;;
21991;SDS011;11160;51.576;0.194;2022-07-30T15:34:34;91.80;;;86.90;;
21991;SDS011;11160;51.576;0.194;2022-07-30T15:37:02;95.07;;;90.00;;
21991;SDS011;11160;51.576;0.194;2022-07-30T15:39:31;70.80;;;67.13;;
21991;SDS011;11160;51.576;0.194;2022-07-30T15:41:59;94.95;;;89.97;;